Kalamazoo Battle Creek International Airport
KAZO : now visible

Airfield :











YOU CAN JOIN US ON...

 
LOGIN :

Register | Disclaimer

   EN    FR    IT 

 









Legend :    VFR   Marginal VFR   IFR   Intensive IFR   Very Intensive IFR
Visi :
Ceiling :
>= 8 km
>= 3000ft
5 to 8 km
1000 to 3000 ft
1500m to 5 km
500 to 1000 ft
800 to 1500m
200 to 500 ft
< 800m
< 200 ft
Symbols :   Thunderstorms  Fog  Heavy snow  Heavy precipitations  Wind > 20 kt






- Airport Elevation : 874 ft
- IATA code : AZO


KAZO - Kalamazoo Battle Creek International

CURRENT METAR :
  • 221053Z 08007KT 2 1/2SM RA BR OVC007 08/07 A3015 RMK AO2 SLP215 P0009 T00830067

EXPIRED METARs :
  • 220953Z 05006KT 2 1/2SM RA BR BKN008 OVC015 08/07 A3018 RMK AO2 TSE0859 CIG 005V011 SLP222 P0018 T00830067
  • 220930Z AUTO 06005KT 3SM RA BR BKN007 OVC018 08/07 A3017 RMK AO2 TSE0859 P0010 T00830067
  • 220916Z AUTO 06005KT 3SM VCTS RA BR FEW007 BKN018 OVC029 08/07 A3018 RMK AO2 LTG DSNT SE-SW TSE0859 P0006 T00830067
  • 220859Z AUTO 08003KT 3SM VCTS RA BR FEW008 BKN019 OVC026 08/07 A3019 RMK AO2 LTG DSNT ALQDS TSE59 P0002 T00830067
  • 220853Z AUTO VRB05KT 3SM TSRA BR BKN019 OVC032 09/07 A3018 RMK AO2 LTG DSNT ALQDS TSB44 SLP223 P0025 60041 T00890067 50002

TAF KAZO
Valid from the 22 at 06:00 until the 23 at 06:00 UTC


220541Z 2206/2306 04005KT 6SM -SHRA VCTS OVC050CB
FM220700 07007KT 5SM -SHRA BR VCTS SCT015CB BKN025
TEMPO 2207/2211 1 1/2SM TSRA BR OVC015CB
FM221100 09008KT 2SM -SHRA BR OVC005
FM221500 10006KT 4SM BR VCSH OVC008
FM221800 11008KT 6SM BR SCT008 BKN012
FM230000 15005KT P6SM BKN035
FM230300 18010KT P6SM OVC250
KZAU FIR / North America



MET'MAP, your aeronautical weather chart ! - Copyright ORBIFLY December 2007 - Disclaimer

ORBIFLY MET'MAP TEAM :

Programming & Development : Alexandra Zaïnal
Concept & original design : Baudouin d'Aumeries
Assistance for programming : Marc-Olivier Méhu
Technical & hardware support : Manuel Goepfert

Contact : metmap@orbifly.com




SOURCES & CREDITS :

   NOAA       Earth
Advisory